LEVD/VLL METAR and TAF weather

Enter ICAO airport designator
Station Type Date Time Source
LEVD METAR 2019/07/18 11:30 UTC NOAA

LEVD 181130Z 03004KT CAVOK 26/07 Q1019


Station Type Date Time Source
LEVD Decoded METAR 2019/07/18 11:30 UTC NOAA

Valladolid / Villanubla, Spain (LEVD) 41-43N 004-51W 846M
Jul 18, 2019 - 07:30 AM EDT / 2019.07.18 1130 UTC
Wind: from the NNE (030 degrees) at 5 MPH (4 KT):0
Visibility: greater than 7 mile(s):0
Temperature: 78 F (26 C)
Dew Point: 44 F (7 C)
Relative Humidity: 29%
Pressure (altimeter): 30.09 in. Hg (1019 hPa)
ob: LEVD 181130Z 03004KT CAVOK 26/07 Q1019
cycle: 11

Station Type Date Time Source
LEVD TAF 2019/07/18 12:27 UTC NOAA

TAF LEVD 181100Z 1812/1912 04008KT CAVOK TX33/1816Z TN17/1905Z
TEMPO 1822/1910 06012KT

Example: see airport list